createdAt,value
2023-01-31T00:00:15.691Z,102264.53
2023-01-31T00:02:42.687Z,102261.84
2023-01-31T00:05:09.917Z,102257.31
2023-01-31T00:07:37.464Z,102259.94
2023-01-31T00:10:04.899Z,102247.59
2023-01-31T00:12:31.753Z,102260.59
2023-01-31T00:14:58.788Z,102272.56
2023-01-31T00:17:26.279Z,102280.31
2023-01-31T00:19:53.324Z,102270.69
2023-01-31T00:22:20.264Z,102262.06
2023-01-31T00:24:47.443Z,102268.16
2023-01-31T00:27:14.363Z,102262.72
2023-01-31T00:29:41.194Z,102252.13
2023-01-31T00:32:08.401Z,102229.50
2023-01-31T00:34:35.874Z,102222.69
2023-01-31T00:37:02.984Z,102220.91
2023-01-31T00:39:30.073Z,102214.63
2023-01-31T00:41:57.058Z,102215.38
2023-01-31T00:44:24.101Z,102217.88
2023-01-31T00:46:51.121Z,102210.75
2023-01-31T00:49:17.991Z,102214.44
2023-01-31T00:51:45.202Z,102214.53
2023-01-31T00:54:11.897Z,102215.16
2023-01-31T00:56:38.597Z,102205.41
2023-01-31T00:59:08.669Z,102206.25
2023-01-31T01:01:36.067Z,102207.28
2023-01-31T01:04:02.991Z,102210.97
2023-01-31T01:06:29.788Z,102217.88
2023-01-31T01:08:57.956Z,102213.47
2023-01-31T01:11:26.919Z,102207.28
2023-01-31T01:13:53.791Z,102200.38
2023-01-31T01:16:22.357Z,102200.38
2023-01-31T01:18:50.449Z,102204.66
2023-01-31T01:21:19.013Z,102202.06
2023-01-31T01:23:48.335Z,102193.34
2023-01-31T01:26:16.900Z,102199.66
2023-01-31T01:28:43.993Z,102192.72
2023-01-31T01:31:11.618Z,102189.16
2023-01-31T01:33:38.465Z,102193.34
2023-01-31T01:36:06.680Z,102178.28
2023-01-31T01:38:35.456Z,102181.53
2023-01-31T01:41:02.222Z,102182.16
2023-01-31T01:43:32.206Z,102183.84
2023-01-31T01:45:59.349Z,102168.03
2023-01-31T01:48:27.818Z,102176.59
2023-01-31T01:50:54.613Z,102171.16
2023-01-31T01:53:23.262Z,102180.06
2023-01-31T01:55:54.452Z,102182.69
2023-01-31T01:58:24.054Z,102187.94
2023-01-31T02:00:51.331Z,102184.59
2023-01-31T02:03:18.743Z,102184.59
2023-01-31T02:05:47.288Z,102191.47
2023-01-31T02:08:16.109Z,102188.03
2023-01-31T02:10:47.034Z,102189.94
2023-01-31T02:13:14.883Z,102185.00
2023-01-31T02:15:41.696Z,102179.94
2023-01-31T02:18:09.213Z,102174.81
2023-01-31T02:20:39.401Z,102165.28
2023-01-31T02:23:06.980Z,102165.91
2023-01-31T02:25:37.117Z,102164.22
2023-01-31T02:28:07.235Z,102170.13
2023-01-31T02:30:34.676Z,102175.88
2023-01-31T02:33:04.880Z,102161.81
2023-01-31T02:35:33.258Z,102150.28
2023-01-31T02:38:03.860Z,102163.19
2023-01-31T02:40:31.275Z,102157.94
2023-01-31T02:43:01.577Z,102146.44
2023-01-31T02:45:31.836Z,102143.59
2023-01-31T02:47:59.197Z,102140.78
2023-01-31T02:50:30.070Z,102134.47
2023-01-31T02:52:59.840Z,102140.56
2023-01-31T02:55:30.259Z,102140.44
2023-01-31T02:57:58.513Z,102142.00
2023-01-31T03:00:26.645Z,102139.28
2023-01-31T03:02:53.773Z,102133.97
2023-01-31T03:05:21.657Z,102136.44
2023-01-31T03:07:52.036Z,102133.53
2023-01-31T03:10:22.217Z,102127.34
2023-01-31T03:12:57.631Z,102127.34
2023-01-31T03:15:27.884Z,102118.66
2023-01-31T03:17:55.291Z,102113.63
2023-01-31T03:20:25.613Z,102125.81
2023-01-31T03:22:55.943Z,102116.03
2023-01-31T03:25:25.185Z,102110.59
2023-01-31T03:27:55.955Z,102121.19
2023-01-31T03:30:28.174Z,102107.22
2023-01-31T03:32:58.342Z,102109.84
2023-01-31T03:35:28.120Z,102102.81
2023-01-31T03:38:00.261Z,102116.53
2023-01-31T03:40:31.102Z,102112.03
2023-01-31T03:43:01.956Z,102095.47
2023-01-31T03:45:33.039Z,102068.41
2023-01-31T03:48:01.193Z,102074.50
2023-01-31T03:50:31.735Z,102080.34
2023-01-31T03:53:02.013Z,102063.69
2023-01-31T03:55:32.659Z,102071.34
2023-01-31T03:58:00.882Z,102064.81
2023-01-31T04:00:28.875Z,102064.59
2023-01-31T04:03:01.770Z,102067.13
2023-01-31T04:05:32.660Z,102065.22
2023-01-31T04:08:00.312Z,102074.53
2023-01-31T04:10:27.444Z,102069.09
2023-01-31T04:12:54.513Z,102072.66
2023-01-31T04:15:22.627Z,102071.81
2023-01-31T04:17:49.899Z,102072.66
2023-01-31T04:20:17.131Z,102066.47
2023-01-31T04:22:44.206Z,102069.78
2023-01-31T04:25:11.666Z,102066.31
2023-01-31T04:27:39.497Z,102071.47
2023-01-31T04:30:07.378Z,102080.19
2023-01-31T04:32:34.605Z,102074.09
2023-01-31T04:35:02.616Z,102074.09
2023-01-31T04:37:29.836Z,102081.03
2023-01-31T04:39:57.136Z,102069.59
2023-01-31T04:42:24.187Z,102073.06
2023-01-31T04:44:51.263Z,102061.81
2023-01-31T04:47:18.355Z,102061.91
2023-01-31T04:49:45.513Z,102066.13
2023-01-31T04:52:12.752Z,102071.38
2023-01-31T04:54:39.809Z,102060.88
2023-01-31T04:57:06.916Z,102063.41
2023-01-31T04:59:33.979Z,102060.66
2023-01-31T05:02:01.053Z,102054.47
2023-01-31T05:04:28.110Z,102048.16
2023-01-31T05:06:55.179Z,102044.47
2023-01-31T05:09:23.229Z,102056.53
2023-01-31T05:11:50.339Z,102054.63
2023-01-31T05:14:17.759Z,102050.44
2023-01-31T05:16:47.636Z,102047.94
2023-01-31T05:19:16.208Z,102041.84
2023-01-31T05:21:46.655Z,102046.03
2023-01-31T05:24:13.698Z,102047.09
2023-01-31T05:26:40.812Z,102041.59
2023-01-31T05:29:08.106Z,102043.28
2023-01-31T05:31:35.260Z,102037.00
2023-01-31T05:34:02.775Z,102034.22
2023-01-31T05:36:29.859Z,102035.81
2023-01-31T05:38:56.916Z,102042.94
2023-01-31T05:41:24.135Z,102045.38
2023-01-31T05:43:51.113Z,102040.31
2023-01-31T05:46:18.217Z,102034.22
2023-01-31T05:48:45.255Z,102028.03
2023-01-31T05:51:12.315Z,102017.78
2023-01-31T05:53:39.482Z,102017.69
2023-01-31T05:56:06.877Z,102019.22
2023-01-31T05:58:33.935Z,102015.56
2023-01-31T06:01:01.124Z,102008.50
2023-01-31T06:03:28.201Z,102004.91
2023-01-31T06:05:55.556Z,101996.94
2023-01-31T06:08:22.649Z,102006.38
2023-01-31T06:10:49.705Z,102007.53
2023-01-31T06:13:16.769Z,102003.25
2023-01-31T06:15:44.341Z,102004.22
2023-01-31T06:18:11.619Z,102009.47
2023-01-31T06:20:39.256Z,102013.88
2023-01-31T06:23:06.418Z,102001.69
2023-01-31T06:25:33.436Z,101998.13
2023-01-31T06:28:00.652Z,102003.47
2023-01-31T06:30:27.777Z,102002.53
2023-01-31T06:32:54.854Z,102002.63
2023-01-31T06:35:22.472Z,102008.63
2023-01-31T06:37:49.762Z,102006.84
2023-01-31T06:40:17.056Z,101998.72
2023-01-31T06:42:44.178Z,101978.47
2023-01-31T06:45:11.559Z,101989.66
2023-01-31T06:47:38.714Z,101987.03
2023-01-31T06:50:06.115Z,101985.25
2023-01-31T06:52:33.725Z,101970.25
2023-01-31T06:55:00.999Z,101984.22
2023-01-31T06:57:28.031Z,101983.47
2023-01-31T06:59:55.135Z,101984.41
2023-01-31T07:02:22.326Z,101980.84
2023-01-31T07:04:49.500Z,101979.16
2023-01-31T07:07:16.715Z,101983.59
2023-01-31T07:09:43.877Z,101973.91
2023-01-31T07:12:11.177Z,101972.97
2023-01-31T07:14:38.445Z,101970.25
2023-01-31T07:17:05.502Z,101986.59
2023-01-31T07:19:32.621Z,101980.91
2023-01-31T07:21:59.718Z,101986.38
2023-01-31T07:24:26.749Z,101973.25
2023-01-31T07:26:54.642Z,101976.94
2023-01-31T07:29:21.868Z,101976.94
2023-01-31T07:31:50.520Z,101971.69
2023-01-31T07:38:39.697Z,101981.84
2023-01-31T07:41:15.363Z,101983.41
2023-01-31T07:43:42.478Z,101982.34
2023-01-31T07:46:10.850Z,101984.75
2023-01-31T07:48:38.219Z,101978.50
2023-01-31T07:51:07.981Z,101970.44
2023-01-31T07:53:37.022Z,101977.13
2023-01-31T07:56:07.151Z,101982.00
2023-01-31T07:58:37.452Z,101979.03
2023-01-31T08:01:07.786Z,101981.78
2023-01-31T08:03:40.733Z,101996.22
2023-01-31T08:06:12.085Z,101996.84
2023-01-31T08:09:00.487Z,102000.81
2023-01-31T08:14:26.212Z,102002.50
2023-01-31T08:16:53.189Z,101996.31
2023-01-31T08:19:20.364Z,101997.13
2023-01-31T08:21:47.264Z,101997.63
2023-01-31T08:24:14.412Z,101992.00
2023-01-31T08:26:42.790Z,101986.50
2023-01-31T08:29:10.273Z,101993.91
2023-01-31T08:31:37.425Z,101993.66
2023-01-31T08:34:04.502Z,101982.09
2023-01-31T08:36:33.015Z,101962.84
2023-01-31T08:39:00.473Z,101968.09
2023-01-31T08:41:28.328Z,101969.41
2023-01-31T08:43:58.490Z,101982.19
2023-01-31T08:46:27.876Z,101974.19
2023-01-31T08:48:55.161Z,101974.66
2023-01-31T08:51:22.536Z,101971.09
2023-01-31T08:53:49.821Z,101965.94
2023-01-31T08:56:17.123Z,101979.09
2023-01-31T08:58:44.728Z,101973.09
2023-01-31T09:01:12.849Z,101971.09
2023-01-31T09:03:40.245Z,101964.66
2023-01-31T09:06:08.482Z,101969.66
2023-01-31T09:08:35.740Z,101968.59
2023-01-31T09:11:03.178Z,101973.69
2023-01-31T09:13:31.468Z,101965.31
2023-01-31T09:15:59.819Z,101970.09
2023-01-31T09:18:26.967Z,101965.03
2023-01-31T09:20:54.073Z,101964.56
2023-01-31T09:23:21.070Z,101951.97
2023-01-31T09:25:51.254Z,101957.97
2023-01-31T09:28:18.394Z,101957.47
2023-01-31T09:30:45.586Z,101959.22
2023-01-31T09:33:12.809Z,101969.84
2023-01-31T09:35:39.801Z,101969.00
2023-01-31T09:38:06.722Z,101966.84
2023-01-31T09:40:36.508Z,101958.97
2023-01-31T09:43:05.398Z,101955.50
2023-01-31T09:45:33.409Z,101968.81
2023-01-31T09:48:01.458Z,101962.31
2023-01-31T09:50:31.953Z,101967.56
2023-01-31T09:52:59.355Z,101971.88
2023-01-31T09:55:33.071Z,101964.78
2023-01-31T09:58:05.454Z,101968.16
2023-01-31T10:00:37.108Z,101979.25
2023-01-31T10:03:07.484Z,101982.34
2023-01-31T10:05:37.527Z,101982.34
2023-01-31T10:08:07.560Z,101990.25
2023-01-31T10:10:37.627Z,101999.13
2023-01-31T10:13:11.359Z,101984.97
2023-01-31T10:15:43.266Z,101992.88
2023-01-31T10:18:14.353Z,101995.41
2023-01-31T10:20:46.747Z,102005.66
2023-01-31T10:23:13.994Z,102009.97
2023-01-31T10:25:48.021Z,102000.16
2023-01-31T10:28:19.932Z,101988.69
2023-01-31T10:30:52.353Z,101984.25
2023-01-31T10:33:19.641Z,101988.41
2023-01-31T10:35:48.647Z,101986.22
2023-01-31T10:38:19.807Z,101992.78
2023-01-31T10:40:49.261Z,101994.19
2023-01-31T10:43:19.242Z,101986.75
2023-01-31T10:45:46.280Z,101977.63
2023-01-31T10:48:16.167Z,101969.47
2023-01-31T10:50:43.959Z,101967.53
2023-01-31T10:53:11.324Z,101961.28
2023-01-31T10:55:45.354Z,101965.34
2023-01-31T10:58:15.368Z,101968.41
2023-01-31T11:00:42.696Z,101961.94
2023-01-31T11:03:11.852Z,101968.47
2023-01-31T11:05:44.322Z,101963.50
2023-01-31T11:08:21.184Z,101964.09
2023-01-31T11:10:51.211Z,101960.91
2023-01-31T11:13:19.414Z,101957.44
2023-01-31T11:15:48.684Z,101954.00
2023-01-31T11:18:25.939Z,101955.81
2023-01-31T11:20:52.888Z,101954.56
2023-01-31T11:23:23.053Z,101934.31
2023-01-31T11:25:51.350Z,101940.47
2023-01-31T11:28:20.034Z,101930.47
2023-01-31T11:30:50.078Z,101937.84
2023-01-31T11:33:20.166Z,101941.47
2023-01-31T11:35:52.352Z,101928.59
2023-01-31T11:38:22.511Z,101942.91
2023-01-31T11:40:49.565Z,101928.34
2023-01-31T11:43:19.593Z,101927.25
2023-01-31T11:45:47.551Z,101922.09
2023-01-31T11:48:17.644Z,101917.56
2023-01-31T11:50:46.171Z,101911.72
2023-01-31T11:53:16.423Z,101910.31
2023-01-31T11:55:43.704Z,101909.53
2023-01-31T11:58:13.684Z,101915.47
2023-01-31T12:00:45.021Z,101909.53
2023-01-31T12:03:16.384Z,101897.56
2023-01-31T12:05:45.113Z,101906.75
2023-01-31T12:08:15.198Z,101902.84
2023-01-31T12:10:43.195Z,101897.25
2023-01-31T12:13:18.799Z,101894.50
2023-01-31T12:15:49.357Z,101893.34
2023-01-31T12:18:21.695Z,101883.50
2023-01-31T12:20:59.141Z,101869.19
2023-01-31T12:23:35.776Z,101881.81
2023-01-31T12:26:06.080Z,101872.06
2023-01-31T12:28:36.202Z,101869.16
2023-01-31T12:31:09.524Z,101872.47
2023-01-31T12:33:38.007Z,101868.88
2023-01-31T12:36:05.233Z,101868.03
2023-01-31T12:38:35.951Z,101865.97
2023-01-31T12:41:06.031Z,101871.66
2023-01-31T12:43:36.316Z,101865.41
2023-01-31T12:46:09.995Z,101869.56
2023-01-31T12:48:40.460Z,101873.59
2023-01-31T12:51:10.495Z,101872.31
2023-01-31T12:53:45.089Z,101872.72
2023-01-31T12:56:15.250Z,101868.13
2023-01-31T12:58:42.637Z,101867.16
2023-01-31T13:01:10.031Z,101877.88
2023-01-31T13:03:44.891Z,101880.66
2023-01-31T13:06:16.007Z,101876.50
2023-01-31T13:08:57.070Z,101883.06
2023-01-31T13:11:35.378Z,101887.94
2023-01-31T13:14:04.206Z,101882.34
2023-01-31T13:16:34.648Z,101888.75
2023-01-31T13:19:03.946Z,101893.34
2023-01-31T13:21:34.121Z,101888.06
2023-01-31T13:24:03.788Z,101893.34
2023-01-31T13:26:33.783Z,101902.38
2023-01-31T13:29:03.853Z,101898.22
2023-01-31T13:31:34.413Z,101907.97
2023-01-31T13:34:07.544Z,101901.72
2023-01-31T13:36:41.760Z,101899.91
2023-01-31T13:39:16.057Z,101889.16
2023-01-31T13:41:43.082Z,101877.50
2023-01-31T13:44:13.079Z,101883.75
2023-01-31T13:46:41.358Z,101874.44
2023-01-31T13:49:11.330Z,101873.75
2023-01-31T13:51:40.759Z,101864.44
2023-01-31T13:54:16.505Z,101860.25
2023-01-31T13:56:47.297Z,101860.84
2023-01-31T13:59:20.308Z,101865.31
2023-01-31T14:01:48.787Z,101867.09
2023-01-31T14:04:16.237Z,101869.47
2023-01-31T14:06:46.267Z,101880.16
2023-01-31T14:09:20.938Z,101872.22
2023-01-31T14:11:47.862Z,101868.91
2023-01-31T14:14:19.407Z,101871.69
2023-01-31T14:16:46.925Z,101888.50
2023-01-31T14:19:16.867Z,101887.66
2023-01-31T14:21:44.208Z,101889.22
2023-01-31T14:24:18.985Z,101888.66
2023-01-31T14:26:46.360Z,101889.47
2023-01-31T14:29:17.173Z,101895.56
2023-01-31T14:31:45.218Z,101909.47
2023-01-31T14:34:15.328Z,101905.13
2023-01-31T14:36:53.337Z,101913.03
2023-01-31T14:39:21.618Z,101911.50
2023-01-31T14:41:52.037Z,101917.00
2023-01-31T14:44:29.407Z,101925.34
2023-01-31T14:47:07.814Z,101922.16
2023-01-31T14:49:35.428Z,101933.19
2023-01-31T14:52:05.412Z,101939.19
2023-01-31T14:54:40.599Z,101938.22
2023-01-31T14:57:07.864Z,101946.06
2023-01-31T14:59:39.475Z,101951.78
2023-01-31T15:02:09.565Z,101953.56
2023-01-31T15:04:36.629Z,101951.75
2023-01-31T15:07:03.558Z,101964.13
2023-01-31T15:09:33.551Z,101963.03
2023-01-31T15:12:01.585Z,101950.63
2023-01-31T15:14:36.275Z,101945.09
2023-01-31T15:17:06.738Z,101937.72
2023-01-31T15:19:40.982Z,101939.25
2023-01-31T15:22:10.099Z,101931.59
2023-01-31T15:24:39.908Z,101943.25
2023-01-31T15:27:09.443Z,101947.88
2023-01-31T15:29:39.467Z,101944.66
2023-01-31T15:32:14.634Z,101958.00
2023-01-31T15:34:47.909Z,101953.56
2023-01-31T15:37:20.638Z,101959.69
2023-01-31T15:39:53.276Z,101954.41
2023-01-31T15:42:21.967Z,101964.25
2023-01-31T15:44:48.887Z,101962.44
2023-01-31T15:47:20.264Z,101961.59
2023-01-31T15:49:47.288Z,101973.84
2023-01-31T15:52:17.329Z,101969.53
2023-01-31T15:54:47.305Z,101962.56
2023-01-31T15:57:16.636Z,101966.16
2023-01-31T15:59:44.912Z,101973.41
2023-01-31T16:02:19.857Z,101969.66
2023-01-31T16:04:47.006Z,101973.13
2023-01-31T16:07:17.152Z,101967.00
2023-01-31T16:09:44.416Z,101969.94
2023-01-31T16:12:11.921Z,101966.59
2023-01-31T16:14:39.527Z,101980.19
2023-01-31T16:17:06.996Z,101979.34
2023-01-31T16:19:36.257Z,101977.84
2023-01-31T16:22:03.420Z,101979.22
2023-01-31T16:24:32.362Z,101980.28
2023-01-31T16:27:03.400Z,101980.84
2023-01-31T16:29:33.624Z,101978.63
2023-01-31T16:32:00.770Z,101975.69
2023-01-31T16:34:30.774Z,101983.03
2023-01-31T16:37:00.763Z,101988.69
2023-01-31T16:39:29.235Z,101992.56
2023-01-31T16:41:58.564Z,101995.59
2023-01-31T16:44:27.978Z,101990.72
2023-01-31T16:46:55.300Z,101989.44
2023-01-31T16:49:22.820Z,101992.56
2023-01-31T16:51:50.883Z,101991.03
2023-01-31T16:54:21.012Z,101994.75
2023-01-31T16:57:06.204Z,102000.53
2023-01-31T16:59:34.573Z,101998.31
2023-01-31T17:02:03.125Z,102016.75
2023-01-31T17:04:30.638Z,102013.28
2023-01-31T17:07:00.745Z,102011.63
2023-01-31T17:09:28.801Z,102012.19
2023-01-31T17:11:56.066Z,102017.19
2023-01-31T17:14:23.545Z,102015.41
2023-01-31T17:16:51.684Z,102025.81
2023-01-31T17:19:18.686Z,102031.09
2023-01-31T17:21:45.932Z,102023.06
2023-01-31T17:24:14.710Z,102015.16
2023-01-31T17:26:41.865Z,102021.28
2023-01-31T17:29:09.048Z,102020.44
2023-01-31T17:31:36.293Z,102027.50
2023-01-31T17:34:04.131Z,102024.97
2023-01-31T17:36:31.286Z,102034.69
2023-01-31T17:38:58.516Z,102034.97
2023-01-31T17:41:26.270Z,102028.00
2023-01-31T17:43:53.413Z,102024.66
2023-01-31T17:46:20.703Z,102039.63
2023-01-31T17:48:48.379Z,102037.84
2023-01-31T17:51:15.589Z,102031.88
2023-01-31T17:53:49.988Z,102032.84
2023-01-31T17:56:18.938Z,102039.63
2023-01-31T17:58:46.182Z,102037.16
2023-01-31T18:01:14.634Z,102041.47
2023-01-31T18:03:42.370Z,102032.84
2023-01-31T18:06:12.722Z,102036.53
2023-01-31T18:08:39.919Z,102037.53
2023-01-31T18:11:09.047Z,102040.03
2023-01-31T18:13:38.274Z,102041.81
2023-01-31T18:16:07.285Z,102046.00
2023-01-31T18:18:36.115Z,102049.59
2023-01-31T18:21:05.940Z,102056.69
2023-01-31T18:23:33.180Z,102055.00
2023-01-31T18:26:03.930Z,102050.44
2023-01-31T18:28:31.132Z,102054.88
2023-01-31T18:31:01.668Z,102055.72
2023-01-31T18:33:29.547Z,102043.25
2023-01-31T18:35:58.061Z,102051.00
2023-01-31T18:38:26.036Z,102045.06
2023-01-31T18:40:53.632Z,102055.59
2023-01-31T18:43:21.933Z,102058.34
2023-01-31T18:45:49.016Z,102059.31
2023-01-31T18:48:16.109Z,102057.06
2023-01-31T18:50:43.561Z,102057.34
2023-01-31T18:53:10.682Z,102057.34
2023-01-31T18:55:37.848Z,102065.34
2023-01-31T18:58:05.044Z,102062.00
2023-01-31T19:00:32.832Z,102048.38
2023-01-31T19:03:00.099Z,102051.38
2023-01-31T19:05:27.762Z,102055.34
2023-01-31T19:07:54.906Z,102056.59
2023-01-31T19:10:22.163Z,102049.91
2023-01-31T19:12:49.720Z,102048.38
2023-01-31T19:15:17.174Z,102046.69
2023-01-31T19:17:44.267Z,102045.00
2023-01-31T19:20:11.890Z,102050.28
2023-01-31T19:22:39.025Z,102052.06
2023-01-31T19:25:09.335Z,102053.75
2023-01-31T19:27:36.429Z,102045.59
2023-01-31T19:30:03.805Z,102040.09
2023-01-31T19:32:31.546Z,102046.31
2023-01-31T19:34:58.571Z,102049.19
2023-01-31T19:37:25.562Z,102047.53
2023-01-31T19:39:52.648Z,102052.91
2023-01-31T19:42:20.875Z,102055.56
2023-01-31T19:44:47.838Z,102057.22
2023-01-31T19:47:14.913Z,102066.09
2023-01-31T19:49:41.850Z,102073.88
2023-01-31T19:52:08.858Z,102066.81
2023-01-31T19:54:35.959Z,102068.47
2023-01-31T19:57:03.203Z,102061.28
2023-01-31T19:59:30.141Z,102060.31
2023-01-31T20:01:57.215Z,102057.81
2023-01-31T20:04:24.302Z,102060.44
2023-01-31T20:06:51.587Z,102053.63
2023-01-31T20:09:20.512Z,102066.81
2023-01-31T20:11:47.591Z,102070.25
2023-01-31T20:14:14.670Z,102069.28
2023-01-31T20:16:41.662Z,102070.13
2023-01-31T20:19:08.654Z,102073.59
2023-01-31T20:21:37.460Z,102078.16
2023-01-31T20:24:05.132Z,102088.84
2023-01-31T20:26:33.088Z,102084.91
2023-01-31T20:29:00.234Z,102081.44
2023-01-31T20:31:27.606Z,102077.13
2023-01-31T20:33:55.319Z,102081.09
2023-01-31T20:36:23.977Z,102073.56
2023-01-31T20:38:51.205Z,102079.19
2023-01-31T20:41:18.138Z,102078.25
2023-01-31T20:43:45.478Z,102075.72
2023-01-31T20:46:13.524Z,102065.19
2023-01-31T20:48:41.195Z,102063.50
2023-01-31T20:51:08.264Z,102063.78
2023-01-31T20:53:36.042Z,102072.28
2023-01-31T20:56:03.352Z,102079.22
2023-01-31T20:58:32.140Z,102073.66
2023-01-31T21:01:00.331Z,102082.84
2023-01-31T21:03:28.288Z,102078.91
2023-01-31T21:05:57.504Z,102076.53
2023-01-31T21:08:24.524Z,102066.97
2023-01-31T21:10:52.251Z,102060.28
2023-01-31T21:13:20.179Z,102051.91
2023-01-31T21:15:50.363Z,102055.59
2023-01-31T21:18:17.315Z,102043.66
2023-01-31T21:20:44.545Z,102043.88
2023-01-31T21:23:11.723Z,102038.97
2023-01-31T21:25:38.737Z,102034.19
2023-01-31T21:28:05.730Z,102043.16
2023-01-31T21:30:32.818Z,102033.84
2023-01-31T21:32:59.819Z,102044.81
2023-01-31T21:35:26.930Z,102055.44
2023-01-31T21:37:54.029Z,102063.59
2023-01-31T21:40:21.404Z,102059.53
2023-01-31T21:42:51.541Z,102073.97
2023-01-31T21:45:38.602Z,102073.34
2023-01-31T21:48:10.736Z,102058.91
2023-01-31T21:50:37.695Z,102067.13
2023-01-31T21:53:04.563Z,102065.56
2023-01-31T21:55:31.517Z,102060.44
2023-01-31T21:57:58.474Z,102056.13
2023-01-31T22:00:25.430Z,102069.50
2023-01-31T22:02:52.921Z,102059.25
2023-01-31T22:05:19.778Z,102072.59
2023-01-31T22:07:46.786Z,102080.72
2023-01-31T22:10:13.794Z,102079.13
2023-01-31T22:12:40.786Z,102070.66
2023-01-31T22:15:08.335Z,102059.41
2023-01-31T22:17:35.391Z,102055.34
2023-01-31T22:20:02.395Z,102052.13
2023-01-31T22:22:29.341Z,102053.31
2023-01-31T22:24:56.279Z,102044.22
2023-01-31T22:27:23.297Z,102045.50
2023-01-31T22:29:50.116Z,102056.00
2023-01-31T22:32:17.028Z,102046.44
2023-01-31T22:34:44.051Z,102051.34
2023-01-31T22:37:11.112Z,102050.69
2023-01-31T22:39:38.019Z,102049.16
2023-01-31T22:42:05.006Z,102050.94
2023-01-31T22:44:31.894Z,102060.59
2023-01-31T22:46:58.778Z,102060.59
2023-01-31T22:49:25.647Z,102073.72
2023-01-31T22:51:52.692Z,102076.47
2023-01-31T22:54:19.582Z,102086.25
2023-01-31T22:56:46.459Z,102090.06
2023-01-31T22:59:13.416Z,102082.28
2023-01-31T23:01:40.345Z,102076.19
2023-01-31T23:04:08.364Z,102078.06
2023-01-31T23:06:35.914Z,102087.13
2023-01-31T23:09:03.004Z,102082.13
2023-01-31T23:11:29.877Z,102070.03
2023-01-31T23:14:00.652Z,102072.16
2023-01-31T23:16:47.502Z,102075.84
2023-01-31T23:19:15.037Z,102073.09
2023-01-31T23:21:43.441Z,102074.78
2023-01-31T23:24:11.265Z,102067.03
2023-01-31T23:26:38.383Z,102069.53
2023-01-31T23:29:05.499Z,102065.34
2023-01-31T23:31:32.738Z,102062.00
2023-01-31T23:34:00.886Z,102062.22
2023-01-31T23:36:28.173Z,102057.91
2023-01-31T23:38:55.366Z,102050.38
2023-01-31T23:41:22.237Z,102057.41
2023-01-31T23:43:49.114Z,102058.25
2023-01-31T23:46:16.071Z,102059.94
2023-01-31T23:48:43.645Z,102051.31
2023-01-31T23:51:10.633Z,102058.34
2023-01-31T23:53:37.585Z,102067.91
2023-01-31T23:56:04.656Z,102064.53
2023-01-31T23:58:31.484Z,102061.91
